Aviation Digital Data Service (ADDS)

Output produced by METARs form (2255 UTC 20 January 2019)
found at http://www.aviationweather.gov/metar/data/
 
METAR text: WIHH 200800Z 35009KT 8000 SCT020 31/23 Q1007 NOSIG
Conditions at: WIHH (HALIM PERDANAKUS, ID) observed 0800 UTC 20 January 2019
Temperature: 31.0°C (88°F)
Dewpoint: 23.0°C (73°F) [RH = 63%]
Pressure (altimeter): 29.73 inches Hg (1007.0 mb)
Winds: from the N (350 degrees) at 10 MPH (9 knots; 4.6 m/s)
Visibility: 5 miles ( 8 km)
Ceiling: at least 12,000 feet AGL
Clouds: scattered clouds at 2000 feet AGL
Weather: no significant weather observed at this time

METAR text: WIHH 200600Z 32005KT 6000 SCT020 30/25 Q1008 NOSIG
Conditions at: WIHH (HALIM PERDANAKUS, ID) observed 0600 UTC 20 January 2019
Temperature: 30.0°C (86°F)
Dewpoint: 25.0°C (77°F) [RH = 75%]
Pressure (altimeter): 29.76 inches Hg (1008.0 mb)
Winds: from the NW (320 degrees) at 6 MPH (5 knots; 2.6 m/s)
Visibility: 4 miles ( 6 km)
Ceiling: at least 12,000 feet AGL
Clouds: scattered clouds at 2000 feet AGL
Weather: no significant weather observed at this time

METAR text: WIHH 200200Z 25004KT 4000 HZ SCT017 28/23 Q1011 RA TO E AND SW
Conditions at: WIHH (HALIM PERDANAKUS, ID) observed 0200 UTC 20 January 2019
Temperature: 28.0°C (82°F)
Dewpoint: 23.0°C (73°F) [RH = 74%]
Pressure (altimeter): 29.85 inches Hg (1011.0 mb)
Winds: from the WSW (250 degrees) at 5 MPH (4 knots; 2.1 m/s)
Visibility: 2.49 miles (4.01 km)
Ceiling: at least 12,000 feet AGL
Clouds: scattered clouds at 1700 feet AGL
Weather: HZ RA  (haze, moderate rain)

METAR text: WIHH 200130Z 00000KT 4000 HZ SCT017 28/23 Q1010 RMK RA TO SW
Conditions at: WIHH (HALIM PERDANAKUS, ID) observed 0130 UTC 20 January 2019
Temperature: 28.0°C (82°F)
Dewpoint: 23.0°C (73°F) [RH = 74%]
Pressure (altimeter): 29.82 inches Hg (1010.0 mb)
Winds: calm
Visibility: 2.49 miles (4.01 km)
Ceiling: at least 12,000 feet AGL
Clouds: scattered clouds at 1700 feet AGL
Weather: HZ  (haze)

METAR text: WIHH 200000Z 22004KT 5000 HZ SCT017 26/23 Q1009 NOSIG
Conditions at: WIHH (HALIM PERDANAKUS, ID) observed 0000 UTC 20 January 2019
Temperature: 26.0°C (79°F)
Dewpoint: 23.0°C (73°F) [RH = 84%]
Pressure (altimeter): 29.79 inches Hg (1009.0 mb)
Winds: from the SW (220 degrees) at 5 MPH (4 knots; 2.1 m/s)
Visibility: 3 miles ( 5 km)
Ceiling: at least 12,000 feet AGL
Clouds: scattered clouds at 1700 feet AGL
Weather: HZ  (haze)

METAR text: WIHH 192300Z 00000KT 5000 HZ FEW024 25/23 Q1008 NOSIG
Conditions at: WIHH (HALIM PERDANAKUS, ID) observed 2300 UTC 19 January 2019
Temperature: 25.0°C (77°F)
Dewpoint: 23.0°C (73°F) [RH = 89%]
Pressure (altimeter): 29.76 inches Hg (1008.0 mb)
Winds: calm
Visibility: 3 miles ( 5 km)
Ceiling: at least 12,000 feet AGL
Clouds: few clouds at 2400 feet AGL
Weather: HZ  (haze)

METAR text: WIHH 191200Z 00000KT 6000 FEW022 28/22 Q1008 NOSIG
Conditions at: WIHH (HALIM PERDANAKUS, ID) observed 1200 UTC 19 January 2019
Temperature: 28.0°C (82°F)
Dewpoint: 22.0°C (72°F) [RH = 70%]
Pressure (altimeter): 29.76 inches Hg (1008.0 mb)
Winds: calm
Visibility: 4 miles ( 6 km)
Ceiling: at least 12,000 feet AGL
Clouds: few clouds at 2200 feet AGL
Weather: no significant weather observed at this time

METAR text: WIHH 191100Z 00000KT 6000 FEW022 28/22 Q1007 NOSIG
Conditions at: WIHH (HALIM PERDANAKUS, ID) observed 1100 UTC 19 January 2019
Temperature: 28.0°C (82°F)
Dewpoint: 22.0°C (72°F) [RH = 70%]
Pressure (altimeter): 29.73 inches Hg (1007.0 mb)
Winds: calm
Visibility: 4 miles ( 6 km)
Ceiling: at least 12,000 feet AGL
Clouds: few clouds at 2200 feet AGL
Weather: no significant weather observed at this time

Forecast for: WIHH (HALIM PERDANAKUS, ID)
Text: TAF WIHH 201700Z 2018/2118 18003KT 6000 FEW022
Forecast period: 1800 UTC 20 January 2019 to 0000 UTC 21 January 2019
Forecast type: FROM: standard forecast or significant change
Winds: from the S (180 degrees) at 3 MPH (3 knots; 1.5 m/s)
Visibility: 4 miles (6 km)
Ceiling: at least 12,000 feet AGL
Clouds: few clouds at 2200 feet AGL
Weather: no significant weather forecast for this period
Text: BECMG 2100/2102 27010KT 8000 SCT020
Forecast period: 0000 to 1800 UTC 21 January 2019
Forecast type: BECOMING: Conditions expected to become as follows by 0200 UTC 21 January 2019
Winds: from the W (270 degrees) at 12 MPH (10 knots; 5.1 m/s)
Visibility: 5 miles (8 km)
Ceiling: at least 12,000 feet AGL
Clouds: scattered clouds at 2000 feet AGL
Weather: no significant weather forecast for this period